sensor_id;sensor_type;location;lat;lon;timestamp;temperature;humidity
3408;DHT22;1717;50.240;8.406;2022-12-07T00:01:06;6.00;99.90
3408;DHT22;1717;50.240;8.406;2022-12-07T00:03:33;6.00;99.90
3408;DHT22;1717;50.240;8.406;2022-12-07T00:06:02;6.00;99.90
3408;DHT22;1717;50.240;8.406;2022-12-07T00:08:30;6.00;99.90
3408;DHT22;1717;50.240;8.406;2022-12-07T00:11:01;6.00;99.90
3408;DHT22;1717;50.240;8.406;2022-12-07T00:13:28;6.00;99.90
3408;DHT22;1717;50.240;8.406;2022-12-07T00:15:55;6.00;99.90
3408;DHT22;1717;50.240;8.406;2022-12-07T00:18:22;6.00;99.90
3408;DHT22;1717;50.240;8.406;2022-12-07T00:20:49;6.00;99.90
3408;DHT22;1717;50.240;8.406;2022-12-07T00:23:18;6.00;99.90
3408;DHT22;1717;50.240;8.406;2022-12-07T00:25:44;6.00;99.90
3408;DHT22;1717;50.240;8.406;2022-12-07T00:28:13;6.00;99.90
3408;DHT22;1717;50.240;8.406;2022-12-07T00:30:40;6.00;99.90
3408;DHT22;1717;50.240;8.406;2022-12-07T00:33:06;6.00;99.90
3408;DHT22;1717;50.240;8.406;2022-12-07T00:35:33;6.00;99.90
3408;DHT22;1717;50.240;8.406;2022-12-07T00:38:00;6.00;99.90
3408;DHT22;1717;50.240;8.406;2022-12-07T00:40:28;6.20;99.90
3408;DHT22;1717;50.240;8.406;2022-12-07T00:42:55;6.00;99.90
3408;DHT22;1717;50.240;8.406;2022-12-07T00:45:22;6.00;99.90
3408;DHT22;1717;50.240;8.406;2022-12-07T00:47:48;6.00;99.90
3408;DHT22;1717;50.240;8.406;2022-12-07T00:50:15;6.10;99.90
3408;DHT22;1717;50.240;8.406;2022-12-07T00:52:42;6.00;99.90
3408;DHT22;1717;50.240;8.406;2022-12-07T00:55:09;6.00;99.90
3408;DHT22;1717;50.240;8.406;2022-12-07T00:57:37;6.00;99.90
3408;DHT22;1717;50.240;8.406;2022-12-07T01:00:05;6.00;99.90
3408;DHT22;1717;50.240;8.406;2022-12-07T01:02:32;6.00;99.90
3408;DHT22;1717;50.240;8.406;2022-12-07T01:04:59;6.00;99.90
3408;DHT22;1717;50.240;8.406;2022-12-07T01:07:25;5.90;99.90
3408;DHT22;1717;50.240;8.406;2022-12-07T01:09:52;6.00;99.90
3408;DHT22;1717;50.240;8.406;2022-12-07T01:12:19;6.00;99.90
3408;DHT22;1717;50.240;8.406;2022-12-07T01:14:47;6.00;99.90
3408;DHT22;1717;50.240;8.406;2022-12-07T01:17:14;6.00;99.90
3408;DHT22;1717;50.240;8.406;2022-12-07T01:19:41;6.00;99.90
3408;DHT22;1717;50.240;8.406;2022-12-07T01:22:08;5.90;99.90
3408;DHT22;1717;50.240;8.406;2022-12-07T01:24:34;6.00;99.90
3408;DHT22;1717;50.240;8.406;2022-12-07T01:27:01;5.90;99.90
3408;DHT22;1717;50.240;8.406;2022-12-07T01:29:28;5.90;99.90
3408;DHT22;1717;50.240;8.406;2022-12-07T01:31:56;5.80;99.90
3408;DHT22;1717;50.240;8.406;2022-12-07T01:34:23;5.70;99.90
3408;DHT22;1717;50.240;8.406;2022-12-07T01:36:50;5.70;99.90
3408;DHT22;1717;50.240;8.406;2022-12-07T01:39:16;5.70;99.90
3408;DHT22;1717;50.240;8.406;2022-12-07T01:41:43;5.60;99.90
3408;DHT22;1717;50.240;8.406;2022-12-07T01:44:16;5.60;99.90
3408;DHT22;1717;50.240;8.406;2022-12-07T01:46:45;5.60;99.90
3408;DHT22;1717;50.240;8.406;2022-12-07T01:49:23;5.50;99.90
3408;DHT22;1717;50.240;8.406;2022-12-07T01:51:53;5.50;99.90
3408;DHT22;1717;50.240;8.406;2022-12-07T01:54:21;5.40;99.90
3408;DHT22;1717;50.240;8.406;2022-12-07T01:56:52;5.40;99.90
3408;DHT22;1717;50.240;8.406;2022-12-07T01:59:21;5.40;99.90
3408;DHT22;1717;50.240;8.406;2022-12-07T02:01:51;5.40;99.90
3408;DHT22;1717;50.240;8.406;2022-12-07T02:04:19;5.30;99.90
3408;DHT22;1717;50.240;8.406;2022-12-07T02:06:48;5.30;99.90
3408;DHT22;1717;50.240;8.406;2022-12-07T02:09:15;5.30;99.90
3408;DHT22;1717;50.240;8.406;2022-12-07T02:11:42;5.30;99.90
3408;DHT22;1717;50.240;8.406;2022-12-07T02:14:08;5.30;99.90
3408;DHT22;1717;50.240;8.406;2022-12-07T02:16:42;5.30;99.90
3408;DHT22;1717;50.240;8.406;2022-12-07T02:19:29;5.30;99.90
3408;DHT22;1717;50.240;8.406;2022-12-07T02:22:18;5.20;99.90
3408;DHT22;1717;50.240;8.406;2022-12-07T02:24:54;5.30;99.90
3408;DHT22;1717;50.240;8.406;2022-12-07T02:27:38;5.30;99.90
3408;DHT22;1717;50.240;8.406;2022-12-07T02:30:10;5.30;99.90
3408;DHT22;1717;50.240;8.406;2022-12-07T02:32:44;5.30;99.90
3408;DHT22;1717;50.240;8.406;2022-12-07T02:35:18;5.20;99.90
3408;DHT22;1717;50.240;8.406;2022-12-07T02:37:52;5.20;99.90
3408;DHT22;1717;50.240;8.406;2022-12-07T02:40:27;5.30;99.90
3408;DHT22;1717;50.240;8.406;2022-12-07T02:42:58;5.30;99.90
3408;DHT22;1717;50.240;8.406;2022-12-07T02:45:29;5.30;99.90
3408;DHT22;1717;50.240;8.406;2022-12-07T02:47:59;5.40;99.90
3408;DHT22;1717;50.240;8.406;2022-12-07T02:50:27;5.40;99.90
3408;DHT22;1717;50.240;8.406;2022-12-07T02:52:54;5.40;99.90
3408;DHT22;1717;50.240;8.406;2022-12-07T02:55:26;5.40;99.90
3408;DHT22;1717;50.240;8.406;2022-12-07T02:58:18;5.40;99.90
3408;DHT22;1717;50.240;8.406;2022-12-07T03:00:54;5.40;99.90
3408;DHT22;1717;50.240;8.406;2022-12-07T03:03:25;5.40;99.90
3408;DHT22;1717;50.240;8.406;2022-12-07T03:06:02;5.40;99.90
3408;DHT22;1717;50.240;8.406;2022-12-07T03:08:38;5.30;99.90
3408;DHT22;1717;50.240;8.406;2022-12-07T03:11:09;5.30;99.90
3408;DHT22;1717;50.240;8.406;2022-12-07T03:13:41;5.30;99.90
3408;DHT22;1717;50.240;8.406;2022-12-07T03:16:14;5.30;99.90
3408;DHT22;1717;50.240;8.406;2022-12-07T03:18:44;5.30;99.90
3408;DHT22;1717;50.240;8.406;2022-12-07T03:21:22;5.30;99.90
3408;DHT22;1717;50.240;8.406;2022-12-07T03:23:54;5.30;99.90
3408;DHT22;1717;50.240;8.406;2022-12-07T03:26:26;5.30;99.90
3408;DHT22;1717;50.240;8.406;2022-12-07T03:28:59;5.30;99.90
3408;DHT22;1717;50.240;8.406;2022-12-07T03:31:32;5.30;99.90
3408;DHT22;1717;50.240;8.406;2022-12-07T03:34:04;5.40;99.90
3408;DHT22;1717;50.240;8.406;2022-12-07T03:36:35;5.40;99.90
3408;DHT22;1717;50.240;8.406;2022-12-07T03:39:13;5.40;99.90
3408;DHT22;1717;50.240;8.406;2022-12-07T03:41:43;5.50;99.90
3408;DHT22;1717;50.240;8.406;2022-12-07T03:44:11;5.50;99.90
3408;DHT22;1717;50.240;8.406;2022-12-07T03:46:43;5.50;99.90
3408;DHT22;1717;50.240;8.406;2022-12-07T03:49:15;5.50;99.90
3408;DHT22;1717;50.240;8.406;2022-12-07T03:51:50;5.50;99.90
3408;DHT22;1717;50.240;8.406;2022-12-07T03:54:23;5.50;99.90
3408;DHT22;1717;50.240;8.406;2022-12-07T03:56:52;5.50;99.90
3408;DHT22;1717;50.240;8.406;2022-12-07T03:59:20;5.50;99.90
3408;DHT22;1717;50.240;8.406;2022-12-07T04:01:54;5.40;99.90
3408;DHT22;1717;50.240;8.406;2022-12-07T04:04:21;5.60;99.90
3408;DHT22;1717;50.240;8.406;2022-12-07T04:06:48;5.50;99.90
3408;DHT22;1717;50.240;8.406;2022-12-07T04:09:15;5.50;99.90
3408;DHT22;1717;50.240;8.406;2022-12-07T04:11:43;5.40;99.90
3408;DHT22;1717;50.240;8.406;2022-12-07T04:14:09;5.40;99.90
3408;DHT22;1717;50.240;8.406;2022-12-07T04:16:45;5.50;99.90
3408;DHT22;1717;50.240;8.406;2022-12-07T04:19:14;5.50;99.90
3408;DHT22;1717;50.240;8.406;2022-12-07T04:21:41;5.50;99.90
3408;DHT22;1717;50.240;8.406;2022-12-07T04:24:08;5.40;99.90
3408;DHT22;1717;50.240;8.406;2022-12-07T04:26:35;5.40;99.90
3408;DHT22;1717;50.240;8.406;2022-12-07T04:29:02;5.50;99.90
3408;DHT22;1717;50.240;8.406;2022-12-07T04:31:29;5.40;99.90
3408;DHT22;1717;50.240;8.406;2022-12-07T04:33:56;5.30;99.90
3408;DHT22;1717;50.240;8.406;2022-12-07T04:36:24;5.30;99.90
3408;DHT22;1717;50.240;8.406;2022-12-07T04:38:53;5.30;99.90
3408;DHT22;1717;50.240;8.406;2022-12-07T04:41:21;5.30;99.90
3408;DHT22;1717;50.240;8.406;2022-12-07T04:43:52;5.30;99.90
3408;DHT22;1717;50.240;8.406;2022-12-07T04:46:19;5.30;99.90
3408;DHT22;1717;50.240;8.406;2022-12-07T04:48:46;5.30;99.90
3408;DHT22;1717;50.240;8.406;2022-12-07T04:51:19;5.30;99.90
3408;DHT22;1717;50.240;8.406;2022-12-07T04:53:48;5.30;99.90
3408;DHT22;1717;50.240;8.406;2022-12-07T04:56:15;5.30;99.90
3408;DHT22;1717;50.240;8.406;2022-12-07T04:58:43;5.30;99.90
3408;DHT22;1717;50.240;8.406;2022-12-07T05:01:09;5.30;99.90
3408;DHT22;1717;50.240;8.406;2022-12-07T05:03:37;5.40;99.90
3408;DHT22;1717;50.240;8.406;2022-12-07T05:06:04;5.30;99.90
3408;DHT22;1717;50.240;8.406;2022-12-07T05:08:32;5.40;99.90
3408;DHT22;1717;50.240;8.406;2022-12-07T05:11:01;5.40;99.90
3408;DHT22;1717;50.240;8.406;2022-12-07T05:13:28;5.40;99.90
3408;DHT22;1717;50.240;8.406;2022-12-07T05:15:55;5.40;99.90
3408;DHT22;1717;50.240;8.406;2022-12-07T05:18:21;5.40;99.90
3408;DHT22;1717;50.240;8.406;2022-12-07T05:20:48;5.40;99.90
3408;DHT22;1717;50.240;8.406;2022-12-07T05:23:16;5.50;99.90
3408;DHT22;1717;50.240;8.406;2022-12-07T05:25:44;5.50;99.90
3408;DHT22;1717;50.240;8.406;2022-12-07T05:28:12;5.50;99.90
3408;DHT22;1717;50.240;8.406;2022-12-07T05:30:39;5.50;99.90
3408;DHT22;1717;50.240;8.406;2022-12-07T05:33:06;5.50;99.90
3408;DHT22;1717;50.240;8.406;2022-12-07T05:35:33;5.60;99.90
3408;DHT22;1717;50.240;8.406;2022-12-07T05:38:00;5.60;99.90
3408;DHT22;1717;50.240;8.406;2022-12-07T05:40:27;5.50;99.90
3408;DHT22;1717;50.240;8.406;2022-12-07T05:42:54;5.60;99.90
3408;DHT22;1717;50.240;8.406;2022-12-07T05:45:21;5.50;99.90
3408;DHT22;1717;50.240;8.406;2022-12-07T05:47:47;5.50;99.90
3408;DHT22;1717;50.240;8.406;2022-12-07T05:50:14;5.60;99.90
3408;DHT22;1717;50.240;8.406;2022-12-07T05:52:41;5.50;99.90
3408;DHT22;1717;50.240;8.406;2022-12-07T05:55:08;5.50;99.90
3408;DHT22;1717;50.240;8.406;2022-12-07T05:57:35;5.50;99.90
3408;DHT22;1717;50.240;8.406;2022-12-07T06:00:03;5.50;99.90
3408;DHT22;1717;50.240;8.406;2022-12-07T06:02:31;5.50;99.90
3408;DHT22;1717;50.240;8.406;2022-12-07T06:04:58;5.50;99.90
3408;DHT22;1717;50.240;8.406;2022-12-07T06:07:24;5.50;99.90
3408;DHT22;1717;50.240;8.406;2022-12-07T06:09:51;5.60;99.90
3408;DHT22;1717;50.240;8.406;2022-12-07T06:12:18;5.50;99.90
3408;DHT22;1717;50.240;8.406;2022-12-07T06:14:59;5.50;99.90
3408;DHT22;1717;50.240;8.406;2022-12-07T06:17:26;5.50;99.90
3408;DHT22;1717;50.240;8.406;2022-12-07T06:19:54;5.50;99.90
3408;DHT22;1717;50.240;8.406;2022-12-07T06:22:21;5.50;99.90
3408;DHT22;1717;50.240;8.406;2022-12-07T06:24:48;5.50;99.90
3408;DHT22;1717;50.240;8.406;2022-12-07T06:27:14;5.50;99.90
3408;DHT22;1717;50.240;8.406;2022-12-07T06:29:41;5.50;99.90
3408;DHT22;1717;50.240;8.406;2022-12-07T06:32:08;5.50;99.90
3408;DHT22;1717;50.240;8.406;2022-12-07T06:34:35;5.50;99.90
3408;DHT22;1717;50.240;8.406;2022-12-07T06:37:03;5.50;99.90
3408;DHT22;1717;50.240;8.406;2022-12-07T06:39:30;5.50;99.90
3408;DHT22;1717;50.240;8.406;2022-12-07T06:41:57;5.50;99.90
3408;DHT22;1717;50.240;8.406;2022-12-07T06:44:24;5.50;99.90
3408;DHT22;1717;50.240;8.406;2022-12-07T06:46:51;5.50;99.90
3408;DHT22;1717;50.240;8.406;2022-12-07T06:49:18;5.50;99.90
3408;DHT22;1717;50.240;8.406;2022-12-07T06:51:45;5.50;99.90
3408;DHT22;1717;50.240;8.406;2022-12-07T06:54:14;5.50;99.90
3408;DHT22;1717;50.240;8.406;2022-12-07T06:56:41;5.50;99.90
3408;DHT22;1717;50.240;8.406;2022-12-07T06:59:08;5.50;99.90
3408;DHT22;1717;50.240;8.406;2022-12-07T07:01:35;5.50;99.90
3408;DHT22;1717;50.240;8.406;2022-12-07T07:04:03;5.50;99.90
3408;DHT22;1717;50.240;8.406;2022-12-07T07:06:30;5.50;99.90
3408;DHT22;1717;50.240;8.406;2022-12-07T07:08:56;5.50;99.90
3408;DHT22;1717;50.240;8.406;2022-12-07T07:11:25;5.60;99.90
3408;DHT22;1717;50.240;8.406;2022-12-07T07:13:51;5.50;99.90
3408;DHT22;1717;50.240;8.406;2022-12-07T07:16:19;5.50;99.90
3408;DHT22;1717;50.240;8.406;2022-12-07T07:18:46;5.50;99.90
3408;DHT22;1717;50.240;8.406;2022-12-07T07:21:12;5.60;99.90
3408;DHT22;1717;50.240;8.406;2022-12-07T07:23:39;5.60;99.90
3408;DHT22;1717;50.240;8.406;2022-12-07T07:26:06;5.50;99.90
3408;DHT22;1717;50.240;8.406;2022-12-07T07:28:34;5.50;99.90
3408;DHT22;1717;50.240;8.406;2022-12-07T07:31:01;5.50;99.90
3408;DHT22;1717;50.240;8.406;2022-12-07T07:33:28;5.50;99.90
3408;DHT22;1717;50.240;8.406;2022-12-07T07:35:55;5.50;99.90
3408;DHT22;1717;50.240;8.406;2022-12-07T07:38:21;5.40;99.90
3408;DHT22;1717;50.240;8.406;2022-12-07T07:40:48;5.50;99.90
3408;DHT22;1717;50.240;8.406;2022-12-07T07:43:15;5.40;99.90
3408;DHT22;1717;50.240;8.406;2022-12-07T07:45:44;5.40;99.90
3408;DHT22;1717;50.240;8.406;2022-12-07T07:48:11;5.40;99.90
3408;DHT22;1717;50.240;8.406;2022-12-07T07:50:38;5.40;99.90
3408;DHT22;1717;50.240;8.406;2022-12-07T07:53:04;5.40;99.90
3408;DHT22;1717;50.240;8.406;2022-12-07T07:55:31;5.40;99.90
3408;DHT22;1717;50.240;8.406;2022-12-07T07:57:58;5.40;99.90
3408;DHT22;1717;50.240;8.406;2022-12-07T08:00:25;5.40;99.90
3408;DHT22;1717;50.240;8.406;2022-12-07T08:02:53;5.40;99.90
3408;DHT22;1717;50.240;8.406;2022-12-07T08:05:20;5.40;99.90
3408;DHT22;1717;50.240;8.406;2022-12-07T08:07:46;5.40;99.90
3408;DHT22;1717;50.240;8.406;2022-12-07T08:10:13;5.40;99.90
3408;DHT22;1717;50.240;8.406;2022-12-07T08:12:41;5.40;99.90
3408;DHT22;1717;50.240;8.406;2022-12-07T08:15:23;5.50;99.90
3408;DHT22;1717;50.240;8.406;2022-12-07T08:17:49;5.50;99.90
3408;DHT22;1717;50.240;8.406;2022-12-07T08:20:18;5.50;99.90
3408;DHT22;1717;50.240;8.406;2022-12-07T08:22:44;5.50;99.90
3408;DHT22;1717;50.240;8.406;2022-12-07T08:25:11;5.50;99.90
3408;DHT22;1717;50.240;8.406;2022-12-07T08:27:38;5.60;99.90
3408;DHT22;1717;50.240;8.406;2022-12-07T08:30:06;5.50;99.90
3408;DHT22;1717;50.240;8.406;2022-12-07T08:32:33;5.50;99.90
3408;DHT22;1717;50.240;8.406;2022-12-07T08:35:01;5.60;99.90
3408;DHT22;1717;50.240;8.406;2022-12-07T08:37:29;5.50;99.90
3408;DHT22;1717;50.240;8.406;2022-12-07T08:39:56;5.50;99.90
3408;DHT22;1717;50.240;8.406;2022-12-07T08:42:23;5.50;99.90
3408;DHT22;1717;50.240;8.406;2022-12-07T08:44:55;5.50;99.90
3408;DHT22;1717;50.240;8.406;2022-12-07T08:47:22;5.40;99.90
3408;DHT22;1717;50.240;8.406;2022-12-07T08:49:50;5.50;99.90
3408;DHT22;1717;50.240;8.406;2022-12-07T08:52:18;5.50;99.90
3408;DHT22;1717;50.240;8.406;2022-12-07T08:54:46;5.50;99.90
3408;DHT22;1717;50.240;8.406;2022-12-07T08:57:13;5.50;99.90
3408;DHT22;1717;50.240;8.406;2022-12-07T08:59:40;5.50;99.90
3408;DHT22;1717;50.240;8.406;2022-12-07T09:02:07;5.50;99.90
3408;DHT22;1717;50.240;8.406;2022-12-07T09:04:34;5.60;99.90
3408;DHT22;1717;50.240;8.406;2022-12-07T09:07:00;5.60;99.90
3408;DHT22;1717;50.240;8.406;2022-12-07T09:09:27;5.50;99.90
3408;DHT22;1717;50.240;8.406;2022-12-07T09:11:55;5.50;99.90
3408;DHT22;1717;50.240;8.406;2022-12-07T09:14:22;5.50;99.90
3408;DHT22;1717;50.240;8.406;2022-12-07T09:16:49;5.60;99.90
3408;DHT22;1717;50.240;8.406;2022-12-07T09:19:16;5.60;99.90
3408;DHT22;1717;50.240;8.406;2022-12-07T09:21:43;5.50;99.90
3408;DHT22;1717;50.240;8.406;2022-12-07T09:24:11;5.60;99.90
3408;DHT22;1717;50.240;8.406;2022-12-07T09:26:38;5.60;99.90
3408;DHT22;1717;50.240;8.406;2022-12-07T09:29:07;5.60;99.90
3408;DHT22;1717;50.240;8.406;2022-12-07T09:31:36;5.50;99.90
3408;DHT22;1717;50.240;8.406;2022-12-07T09:34:04;5.50;99.90
3408;DHT22;1717;50.240;8.406;2022-12-07T09:36:31;5.50;99.90
3408;DHT22;1717;50.240;8.406;2022-12-07T09:38:58;5.60;99.90
3408;DHT22;1717;50.240;8.406;2022-12-07T09:41:27;5.60;99.90
3408;DHT22;1717;50.240;8.406;2022-12-07T09:44:02;5.60;99.90
3408;DHT22;1717;50.240;8.406;2022-12-07T09:46:35;5.60;99.90
3408;DHT22;1717;50.240;8.406;2022-12-07T09:49:03;5.60;99.90
3408;DHT22;1717;50.240;8.406;2022-12-07T09:51:31;5.60;99.90
3408;DHT22;1717;50.240;8.406;2022-12-07T09:53:58;5.60;99.90
3408;DHT22;1717;50.240;8.406;2022-12-07T09:56:28;5.60;99.90
3408;DHT22;1717;50.240;8.406;2022-12-07T09:58:59;5.60;99.90
3408;DHT22;1717;50.240;8.406;2022-12-07T10:01:29;5.70;99.90
3408;DHT22;1717;50.240;8.406;2022-12-07T10:04:08;5.70;99.90
3408;DHT22;1717;50.240;8.406;2022-12-07T10:06:36;5.70;99.90
3408;DHT22;1717;50.240;8.406;2022-12-07T10:09:08;5.60;99.90
3408;DHT22;1717;50.240;8.406;2022-12-07T10:11:35;5.70;99.90
3408;DHT22;1717;50.240;8.406;2022-12-07T10:14:12;5.70;99.90
3408;DHT22;1717;50.240;8.406;2022-12-07T10:16:40;5.70;99.90
3408;DHT22;1717;50.240;8.406;2022-12-07T10:19:22;5.70;99.90
3408;DHT22;1717;50.240;8.406;2022-12-07T10:22:09;5.70;99.90
3408;DHT22;1717;50.240;8.406;2022-12-07T10:24:36;5.70;99.90
3408;DHT22;1717;50.240;8.406;2022-12-07T10:27:18;5.60;99.90
3408;DHT22;1717;50.240;8.406;2022-12-07T10:29:48;5.60;99.90
3408;DHT22;1717;50.240;8.406;2022-12-07T10:32:29;5.70;99.90
3408;DHT22;1717;50.240;8.406;2022-12-07T10:35:19;5.60;99.90
3408;DHT22;1717;50.240;8.406;2022-12-07T10:37:46;5.70;99.90
3408;DHT22;1717;50.240;8.406;2022-12-07T10:40:29;5.70;99.90
3408;DHT22;1717;50.240;8.406;2022-12-07T10:43:05;5.70;99.90
3408;DHT22;1717;50.240;8.406;2022-12-07T10:45:34;5.80;99.90
3408;DHT22;1717;50.240;8.406;2022-12-07T10:48:06;5.80;99.90
3408;DHT22;1717;50.240;8.406;2022-12-07T10:50:55;5.90;99.90
3408;DHT22;1717;50.240;8.406;2022-12-07T10:53:32;5.80;99.90
3408;DHT22;1717;50.240;8.406;2022-12-07T10:56:23;5.90;99.90
3408;DHT22;1717;50.240;8.406;2022-12-07T10:59:02;5.90;99.90
3408;DHT22;1717;50.240;8.406;2022-12-07T11:01:34;5.90;99.90
3408;DHT22;1717;50.240;8.406;2022-12-07T11:04:20;5.90;99.90
3408;DHT22;1717;50.240;8.406;2022-12-07T11:06:57;5.90;99.90
3408;DHT22;1717;50.240;8.406;2022-12-07T11:09:57;5.90;99.90
3408;DHT22;1717;50.240;8.406;2022-12-07T11:12:34;5.90;99.90
3408;DHT22;1717;50.240;8.406;2022-12-07T11:15:14;5.90;99.90
3408;DHT22;1717;50.240;8.406;2022-12-07T11:17:49;6.00;99.90
3408;DHT22;1717;50.240;8.406;2022-12-07T11:20:29;6.00;99.90
3408;DHT22;1717;50.240;8.406;2022-12-07T11:23:11;6.00;99.90
3408;DHT22;1717;50.240;8.406;2022-12-07T11:25:43;6.00;99.90
3408;DHT22;1717;50.240;8.406;2022-12-07T11:28:20;6.00;99.90
3408;DHT22;1717;50.240;8.406;2022-12-07T11:30:57;6.10;99.90
3408;DHT22;1717;50.240;8.406;2022-12-07T11:33:34;6.10;99.90
3408;DHT22;1717;50.240;8.406;2022-12-07T11:36:09;6.10;99.90
3408;DHT22;1717;50.240;8.406;2022-12-07T11:38:44;6.20;99.90
3408;DHT22;1717;50.240;8.406;2022-12-07T11:41:12;6.10;99.90
3408;DHT22;1717;50.240;8.406;2022-12-07T11:43:53;6.20;99.90
3408;DHT22;1717;50.240;8.406;2022-12-07T11:46:24;6.20;99.90
3408;DHT22;1717;50.240;8.406;2022-12-07T11:48:58;6.20;99.90
3408;DHT22;1717;50.240;8.406;2022-12-07T11:51:28;6.20;99.90
3408;DHT22;1717;50.240;8.406;2022-12-07T11:54:01;6.20;99.90
3408;DHT22;1717;50.240;8.406;2022-12-07T11:56:30;6.20;99.90
3408;DHT22;1717;50.240;8.406;2022-12-07T11:59:07;6.20;99.90
3408;DHT22;1717;50.240;8.406;2022-12-07T12:01:45;6.20;99.90
3408;DHT22;1717;50.240;8.406;2022-12-07T12:04:25;6.10;99.90
3408;DHT22;1717;50.240;8.406;2022-12-07T12:06:54;6.20;99.90
3408;DHT22;1717;50.240;8.406;2022-12-07T12:09:25;6.20;99.90
3408;DHT22;1717;50.240;8.406;2022-12-07T12:12:13;6.20;99.90
3408;DHT22;1717;50.240;8.406;2022-12-07T12:14:52;6.10;99.90
3408;DHT22;1717;50.240;8.406;2022-12-07T12:17:41;6.10;99.90
3408;DHT22;1717;50.240;8.406;2022-12-07T12:20:20;6.10;99.90
3408;DHT22;1717;50.240;8.406;2022-12-07T12:22:52;6.10;99.90
3408;DHT22;1717;50.240;8.406;2022-12-07T12:25:24;6.10;99.90
3408;DHT22;1717;50.240;8.406;2022-12-07T12:27:54;6.10;99.90
3408;DHT22;1717;50.240;8.406;2022-12-07T12:30:31;6.10;99.90
3408;DHT22;1717;50.240;8.406;2022-12-07T12:33:04;6.00;99.90
3408;DHT22;1717;50.240;8.406;2022-12-07T12:35:33;6.00;99.90
3408;DHT22;1717;50.240;8.406;2022-12-07T12:38:30;5.80;99.90
3408;DHT22;1717;50.240;8.406;2022-12-07T12:40:58;5.70;99.90
3408;DHT22;1717;50.240;8.406;2022-12-07T12:43:49;5.60;99.90
3408;DHT22;1717;50.240;8.406;2022-12-07T12:49:35;5.60;99.90
3408;DHT22;1717;50.240;8.406;2022-12-07T12:58:39;5.50;99.90
3408;DHT22;1717;50.240;8.406;2022-12-07T13:01:32;5.60;99.90
3408;DHT22;1717;50.240;8.406;2022-12-07T13:04:03;5.60;99.90
3408;DHT22;1717;50.240;8.406;2022-12-07T13:06:34;5.70;99.90
3408;DHT22;1717;50.240;8.406;2022-12-07T13:09:03;5.60;99.90
3408;DHT22;1717;50.240;8.406;2022-12-07T13:11:33;5.70;99.90
3408;DHT22;1717;50.240;8.406;2022-12-07T13:17:09;5.70;99.90
3408;DHT22;1717;50.240;8.406;2022-12-07T13:19:57;5.70;99.90
3408;DHT22;1717;50.240;8.406;2022-12-07T13:22:54;5.80;99.90
3408;DHT22;1717;50.240;8.406;2022-12-07T13:25:31;5.80;99.90
3408;DHT22;1717;50.240;8.406;2022-12-07T13:28:02;5.70;99.90
3408;DHT22;1717;50.240;8.406;2022-12-07T13:30:43;5.70;99.90
3408;DHT22;1717;50.240;8.406;2022-12-07T13:33:14;5.80;99.90
3408;DHT22;1717;50.240;8.406;2022-12-07T13:35:42;5.80;99.90
3408;DHT22;1717;50.240;8.406;2022-12-07T13:38:21;5.80;99.90
3408;DHT22;1717;50.240;8.406;2022-12-07T13:41:00;5.80;99.90
3408;DHT22;1717;50.240;8.406;2022-12-07T13:43:27;5.90;99.90
3408;DHT22;1717;50.240;8.406;2022-12-07T13:45:59;5.80;99.90
3408;DHT22;1717;50.240;8.406;2022-12-07T13:48:32;5.90;99.90
3408;DHT22;1717;50.240;8.406;2022-12-07T13:51:01;5.90;99.90
3408;DHT22;1717;50.240;8.406;2022-12-07T13:53:28;5.90;99.90
3408;DHT22;1717;50.240;8.406;2022-12-07T13:55:56;5.90;99.90
3408;DHT22;1717;50.240;8.406;2022-12-07T13:58:24;6.00;99.90
3408;DHT22;1717;50.240;8.406;2022-12-07T14:00:51;6.00;99.90
3408;DHT22;1717;50.240;8.406;2022-12-07T14:03:31;5.90;99.90
3408;DHT22;1717;50.240;8.406;2022-12-07T14:06:13;5.90;99.90
3408;DHT22;1717;50.240;8.406;2022-12-07T14:08:41;5.90;99.90
3408;DHT22;1717;50.240;8.406;2022-12-07T14:11:11;5.80;99.90
3408;DHT22;1717;50.240;8.406;2022-12-07T14:13:56;5.70;99.90
3408;DHT22;1717;50.240;8.406;2022-12-07T14:16:26;5.70;99.90
3408;DHT22;1717;50.240;8.406;2022-12-07T14:18:57;5.70;99.90
3408;DHT22;1717;50.240;8.406;2022-12-07T14:21:25;5.70;99.90
3408;DHT22;1717;50.240;8.406;2022-12-07T14:24:17;5.70;99.90
3408;DHT22;1717;50.240;8.406;2022-12-07T14:26:45;5.80;99.90
3408;DHT22;1717;50.240;8.406;2022-12-07T14:29:21;5.80;99.90
3408;DHT22;1717;50.240;8.406;2022-12-07T14:31:48;5.80;99.90
3408;DHT22;1717;50.240;8.406;2022-12-07T14:34:16;5.80;99.90
3408;DHT22;1717;50.240;8.406;2022-12-07T14:36:45;5.90;99.90
3408;DHT22;1717;50.240;8.406;2022-12-07T14:39:12;5.70;99.90
3408;DHT22;1717;50.240;8.406;2022-12-07T14:41:39;5.70;99.90
3408;DHT22;1717;50.240;8.406;2022-12-07T14:44:19;5.80;99.90
3408;DHT22;1717;50.240;8.406;2022-12-07T14:46:46;5.80;99.90
3408;DHT22;1717;50.240;8.406;2022-12-07T14:49:13;5.60;99.90
3408;DHT22;1717;50.240;8.406;2022-12-07T14:51:42;5.60;99.90
3408;DHT22;1717;50.240;8.406;2022-12-07T14:54:15;5.60;99.90
3408;DHT22;1717;50.240;8.406;2022-12-07T14:56:43;5.60;99.90
3408;DHT22;1717;50.240;8.406;2022-12-07T14:59:11;5.60;99.90
3408;DHT22;1717;50.240;8.406;2022-12-07T15:01:38;5.60;99.90
3408;DHT22;1717;50.240;8.406;2022-12-07T15:04:05;5.50;99.90
3408;DHT22;1717;50.240;8.406;2022-12-07T15:06:32;5.50;99.90
3408;DHT22;1717;50.240;8.406;2022-12-07T15:09:00;5.50;99.90
3408;DHT22;1717;50.240;8.406;2022-12-07T15:11:27;5.50;99.90
3408;DHT22;1717;50.240;8.406;2022-12-07T15:13:54;5.40;99.90
3408;DHT22;1717;50.240;8.406;2022-12-07T15:16:39;5.40;99.90
3408;DHT22;1717;50.240;8.406;2022-12-07T15:19:08;5.40;99.90
3408;DHT22;1717;50.240;8.406;2022-12-07T15:21:36;5.30;99.90
3408;DHT22;1717;50.240;8.406;2022-12-07T15:24:05;5.30;99.90
3408;DHT22;1717;50.240;8.406;2022-12-07T15:26:32;5.30;99.90
3408;DHT22;1717;50.240;8.406;2022-12-07T15:28:59;5.30;99.90
3408;DHT22;1717;50.240;8.406;2022-12-07T15:31:26;5.30;99.90
3408;DHT22;1717;50.240;8.406;2022-12-07T15:33:53;5.30;99.90
3408;DHT22;1717;50.240;8.406;2022-12-07T15:36:21;5.30;99.90
3408;DHT22;1717;50.240;8.406;2022-12-07T15:38:48;5.30;99.90
3408;DHT22;1717;50.240;8.406;2022-12-07T15:41:17;5.30;99.90
3408;DHT22;1717;50.240;8.406;2022-12-07T15:43:44;5.30;99.90
3408;DHT22;1717;50.240;8.406;2022-12-07T15:46:30;5.30;99.90
3408;DHT22;1717;50.240;8.406;2022-12-07T15:48:57;5.30;99.90
3408;DHT22;1717;50.240;8.406;2022-12-07T15:51:25;5.30;99.90
3408;DHT22;1717;50.240;8.406;2022-12-07T15:53:51;5.20;99.90
3408;DHT22;1717;50.240;8.406;2022-12-07T15:56:20;5.30;99.90
3408;DHT22;1717;50.240;8.406;2022-12-07T15:58:47;5.20;99.90
3408;DHT22;1717;50.240;8.406;2022-12-07T16:01:15;5.20;99.90
3408;DHT22;1717;50.240;8.406;2022-12-07T16:03:42;5.30;99.90
3408;DHT22;1717;50.240;8.406;2022-12-07T16:06:11;5.20;99.90
3408;DHT22;1717;50.240;8.406;2022-12-07T16:08:42;5.20;99.90
3408;DHT22;1717;50.240;8.406;2022-12-07T16:11:09;5.20;99.90
3408;DHT22;1717;50.240;8.406;2022-12-07T16:13:37;5.20;99.90
3408;DHT22;1717;50.240;8.406;2022-12-07T16:16:05;5.20;99.90
3408;DHT22;1717;50.240;8.406;2022-12-07T16:18:33;5.20;99.90
3408;DHT22;1717;50.240;8.406;2022-12-07T16:21:01;5.10;99.90
3408;DHT22;1717;50.240;8.406;2022-12-07T16:23:28;5.20;99.90
3408;DHT22;1717;50.240;8.406;2022-12-07T16:25:55;5.20;99.90
3408;DHT22;1717;50.240;8.406;2022-12-07T16:28:29;5.10;99.90
3408;DHT22;1717;50.240;8.406;2022-12-07T16:31:02;5.10;99.90
3408;DHT22;1717;50.240;8.406;2022-12-07T16:33:29;5.10;99.90
3408;DHT22;1717;50.240;8.406;2022-12-07T16:35:55;5.10;99.90
3408;DHT22;1717;50.240;8.406;2022-12-07T16:38:22;5.10;99.90
3408;DHT22;1717;50.240;8.406;2022-12-07T16:40:49;5.10;99.90
3408;DHT22;1717;50.240;8.406;2022-12-07T16:43:16;5.20;99.90
3408;DHT22;1717;50.240;8.406;2022-12-07T16:45:43;5.20;99.90
3408;DHT22;1717;50.240;8.406;2022-12-07T16:48:11;5.30;99.90
3408;DHT22;1717;50.240;8.406;2022-12-07T16:50:39;5.20;99.90